Time;durP1;ratioP1;P1;durP2;ratioP2;P2;SDS_P1;SDS_P2;PMS_P1;PMS_P2;Temp;Humidity;BMP_temperature;BMP_pressure;BME280_temperature;BME280_humidity;BME280_pressure;Samples;Min_cycle;Max_cycle;Signal;HPM_P1;HPM_P2
2023/07/29 00:02:22;;;;;;;4.13;3.27;;;;;;;19.88;88.70;98356.16;5178705;27;41753;-76
2023/07/29 00:04:49;;;;;;;4.80;4.40;;;;;;;19.84;89.12;98345.91;5178486;27;43263;-76
2023/07/29 00:07:18;;;;;;;4.40;4.00;;;;;;;19.79;89.51;98345.56;5178526;27;40867;-76
2023/07/29 00:09:50;;;;;;;4.70;4.40;;;;;;;19.76;90.29;98351.28;5196409;27;41546;-76
2023/07/29 00:12:17;;;;;;;5.30;4.80;;;;;;;19.73;90.31;98347.09;5159887;27;41454;-76
2023/07/29 00:14:47;;;;;;;5.10;4.63;;;;;;;19.70;91.02;98348.25;5177217;27;43060;-76
2023/07/29 00:17:15;;;;;;;4.87;4.23;;;;;;;19.70;91.28;98345.56;5159945;27;39819;-76
2023/07/29 00:19:42;;;;;;;4.10;3.83;;;;;;;19.70;91.30;98347.41;5177061;27;40810;-76
2023/07/29 00:22:10;;;;;;;4.50;4.10;;;;;;;19.66;91.33;98349.56;5177386;27;42651;-76
2023/07/29 00:24:40;;;;;;;4.17;3.87;;;;;;;19.59;91.14;98334.28;5159358;27;41267;-76
2023/07/29 00:27:08;;;;;;;4.63;4.17;;;;;;;19.61;91.19;98343.88;5177284;27;41131;-76
2023/07/29 00:29:35;;;;;;;4.33;3.93;;;;;;;19.63;91.45;98347.25;5159599;27;41759;-76
2023/07/29 00:32:03;;;;;;;4.43;4.13;;;;;;;19.63;91.62;98355.31;5196027;27;43502;-76
2023/07/29 00:34:31;;;;;;;4.07;3.77;;;;;;;19.59;91.62;98353.94;5176786;27;41159;-76
2023/07/29 00:36:58;;;;;;;3.50;3.20;;;;;;;19.59;91.51;98356.63;5177375;27;40984;-76
2023/07/29 00:39:26;;;;;;;3.80;2.97;;;;;;;19.59;91.43;98351.25;5159244;27;40665;-76
2023/07/29 00:41:55;;;;;;;4.27;3.87;;;;;;;19.58;91.66;98348.72;5177719;27;42912;-74
2023/07/29 00:44:23;;;;;;;4.23;3.63;;;;;;;19.57;91.34;98347.88;5196607;27;42271;-76
2023/07/29 00:46:53;;;;;;;3.40;3.20;;;;;;;19.45;91.34;98325.00;5178013;27;41091;-76
2023/07/29 00:49:22;;;;;;;4.07;3.00;;;;;;;19.53;91.61;98351.09;5175427;27;41716;-76
2023/07/29 00:51:50;;;;;;;3.63;3.43;;;;;;;19.51;91.29;98345.03;5160244;27;42996;-76
2023/07/29 00:54:18;;;;;;;3.33;3.13;;;;;;;19.46;90.90;98333.91;5177191;27;43031;-77
2023/07/29 00:56:46;;;;;;;3.00;2.80;;;;;;;19.44;91.17;98330.53;5160054;27;39959;-77
2023/07/29 00:59:16;;;;;;;3.30;3.10;;;;;;;19.29;90.80;98314.22;5160148;27;42027;-76
2023/07/29 01:01:44;;;;;;;3.90;3.60;;;;;;;19.43;90.98;98351.16;5160115;27;41859;-77
2023/07/29 01:04:11;;;;;;;2.63;2.43;;;;;;;19.43;91.10;98356.53;5159737;27;42562;-76
2023/07/29 01:06:50;;;;;;;4.23;3.83;;;;;;;19.42;91.77;98354.88;5159774;27;39959;-76
2023/07/29 01:09:34;;;;;;;3.43;3.13;;;;;;;19.41;91.54;98341.63;5174086;27;41772;-76
2023/07/29 01:12:12;;;;;;;4.60;3.73;;;;;;;19.29;91.55;98323.09;5172547;27;42439;-77
2023/07/29 01:14:48;;;;;;;3.83;3.53;;;;;;;19.31;92.54;98325.63;5158726;27;42666;-76
2023/07/29 01:17:23;;;;;;;3.90;3.50;;;;;;;19.40;92.12;98330.03;5159192;27;40972;-77
2023/07/29 01:20:01;;;;;;;3.60;3.30;;;;;;;19.38;92.64;98327.50;5158944;27;40553;-76
2023/07/29 01:22:30;;;;;;;3.67;3.47;;;;;;;19.44;92.84;98326.00;5173132;27;42863;-77
2023/07/29 01:25:01;;;;;;;3.10;2.90;;;;;;;19.40;92.30;98316.63;5176363;27;42387;-77
2023/07/29 01:27:28;;;;;;;3.47;3.20;;;;;;;19.49;92.76;98322.88;5158746;27;40851;-76
2023/07/29 01:29:58;;;;;;;3.80;3.50;;;;;;;19.54;92.91;98326.72;5158294;27;40801;-77
2023/07/29 01:32:37;;;;;;;3.23;3.00;;;;;;;19.54;92.68;98315.97;5176208;27;42849;-76
2023/07/29 01:35:16;;;;;;;4.10;3.10;;;;;;;19.52;92.73;98306.44;5158333;27;42366;-76
2023/07/29 01:37:50;;;;;;;4.40;3.63;;;;;;;19.50;93.00;98314.66;5191938;27;41015;-77
2023/07/29 01:40:20;;;;;;;3.00;2.80;;;;;;;19.46;92.47;98307.03;5175876;27;41839;-76
2023/07/29 01:42:48;;;;;;;3.53;3.23;;;;;;;19.33;92.14;98294.09;5177031;27;43355;-76
2023/07/29 01:45:16;;;;;;;3.37;3.07;;;;;;;19.40;92.38;98313.94;5176678;27;42530;-76
2023/07/29 01:47:44;;;;;;;3.57;3.27;;;;;;;19.30;92.60;98305.16;5159365;27;39811;-76
2023/07/29 01:50:12;;;;;;;3.60;3.30;;;;;;;19.33;92.70;98304.84;5176479;27;41664;-76
2023/07/29 01:52:40;;;;;;;3.50;3.30;;;;;;;19.21;93.35;98295.41;5159341;27;41641;-76
2023/07/29 01:55:08;;;;;;;5.03;3.70;;;;;;;19.27;93.16;98300.13;5195035;27;42258;-76
2023/07/29 01:57:37;;;;;;;3.73;3.33;;;;;;;19.24;92.93;98295.09;5158934;27;39630;-77
2023/07/29 02:00:07;;;;;;;3.57;3.27;;;;;;;19.24;92.97;98295.09;5176511;27;41815;-76
2023/07/29 02:02:42;;;;;;;4.10;3.27;;;;;;;19.24;92.89;98303.13;5192301;27;42771;-76
2023/07/29 02:05:10;;;;;;;2.77;2.57;;;;;;;19.23;92.34;98301.47;5176181;27;42617;-76
2023/07/29 02:07:38;;;;;;;3.40;3.20;;;;;;;19.21;92.70;98293.56;5158881;27;40497;-76
2023/07/29 02:10:06;;;;;;;3.83;3.57;;;;;;;19.20;92.60;98302.63;5193639;27;41770;-76
2023/07/29 02:12:34;;;;;;;3.23;2.93;;;;;;;19.20;92.90;98291.88;5175299;27;42565;-77
2023/07/29 02:15:05;;;;;;;3.30;3.10;;;;;;;19.25;92.57;98299.47;5159410;27;41290;-76
2023/07/29 02:17:33;;;;;;;3.20;2.90;;;;;;;19.29;92.38;98300.78;5165423;27;40018;-77
2023/07/29 02:20:01;;;;;;;3.17;2.97;;;;;;;19.32;91.94;98292.41;5182431;27;42536;-77
2023/07/29 02:22:28;;;;;;;3.03;2.70;;;;;;;19.36;91.33;98283.03;5165047;27;42787;-77
2023/07/29 02:24:56;;;;;;;3.33;2.70;;;;;;;19.38;91.26;98286.41;5181954;27;42199;-74
2023/07/29 02:27:26;;;;;;;2.70;2.50;;;;;;;19.40;90.89;98294.28;5182277;27;41771;-76
2023/07/29 02:29:53;;;;;;;3.13;2.93;;;;;;;19.39;91.97;98285.41;5182090;27;41703;-77
2023/07/29 02:32:23;;;;;;;3.60;3.30;;;;;;;19.29;91.69;98260.50;5182343;27;42627;-76
2023/07/29 02:34:50;;;;;;;3.80;3.33;;;;;;;19.34;92.21;98266.25;5181905;27;42998;-77
2023/07/29 02:37:18;;;;;;;4.93;3.70;;;;;;;19.44;93.14;98277.66;5164543;27;40201;-77
2023/07/29 02:39:45;;;;;;;4.10;3.70;;;;;;;19.45;93.10;98273.13;5182294;27;41854;-77
2023/07/29 02:42:13;;;;;;;4.80;3.27;;;;;;;19.47;93.14;98271.97;5182681;27;41967;-76
2023/07/29 02:44:41;;;;;;;3.50;3.20;;;;;;;19.41;92.24;98266.44;5183011;27;43292;-76
2023/07/29 02:47:09;;;;;;;3.10;2.80;;;;;;;19.51;92.26;98278.72;5165440;27;40973;-76
2023/07/29 02:49:38;;;;;;;2.77;2.57;;;;;;;19.46;92.01;98262.22;5165116;27;40482;-76
2023/07/29 02:52:06;;;;;;;3.33;2.40;;;;;;;19.52;91.54;98268.81;5182917;27;42894;-76
2023/07/29 02:54:34;;;;;;;2.63;2.30;;;;;;;19.61;90.97;98278.56;5182522;27;42463;-76
2023/07/29 02:57:01;;;;;;;2.33;2.13;;;;;;;19.61;91.05;98271.34;5201605;27;40920;-76
2023/07/29 02:59:29;;;;;;;3.10;2.53;;;;;;;19.64;90.90;98272.88;5165236;27;40541;-76
2023/07/29 03:01:59;;;;;;;2.20;2.00;;;;;;;19.66;90.76;98268.97;5166467;27;20231;-76
2023/07/29 03:04:27;;;;;;;2.30;2.10;;;;;;;19.69;90.46;98265.97;5182685;27;42276;-76
2023/07/29 03:06:56;;;;;;;2.00;1.87;;;;;;;19.62;90.43;98243.47;5164211;27;39524;-77
2023/07/29 03:09:23;;;;;;;2.77;2.23;;;;;;;19.75;90.35;98258.25;5181064;27;40990;-77
2023/07/29 03:11:52;;;;;;;3.40;2.13;;;;;;;19.77;90.09;98253.56;5164213;27;41681;-77
2023/07/29 03:14:20;;;;;;;1.97;1.87;;;;;;;19.83;89.65;98266.31;5181890;27;43201;-76
2023/07/29 03:16:47;;;;;;;1.83;1.73;;;;;;;19.88;89.57;98288.16;5164074;27;40876;-76
2023/07/29 03:19:16;;;;;;;4.17;2.00;;;;;;;19.84;89.60;98310.97;5164308;27;40621;-77
2023/07/29 03:21:45;;;;;;;3.73;2.73;;;;;;;19.46;91.14;98285.56;5182204;27;42846;-77
2023/07/29 03:24:14;;;;;;;5.27;3.07;;;;;;;19.25;96.16;98275.28;5164205;27;41242;-78
2023/07/29 03:26:42;;;;;;;6.57;2.80;;;;;;;19.15;96.25;98262.03;5179532;27;41821;-79
2023/07/29 03:29:10;;;;;;;3.77;2.93;;;;;;;19.17;96.13;98267.19;5160934;27;40442;-78
2023/07/29 03:31:38;;;;;;;2.40;1.60;;;;;;;19.21;95.65;98272.09;5160882;27;43005;-79
2023/07/29 03:34:06;;;;;;;2.37;2.13;;;;;;;19.24;95.53;98273.59;5178508;27;43315;-78
2023/07/29 03:36:34;;;;;;;2.53;2.10;;;;;;;19.07;95.09;98239.69;5161027;27;39721;-75
2023/07/29 03:39:03;;;;;;;2.97;2.10;;;;;;;19.24;95.32;98270.94;5178172;27;42573;-77
2023/07/29 03:41:33;;;;;;;2.03;1.80;;;;;;;19.24;94.92;98257.50;5179210;27;43708;-76
2023/07/29 03:44:00;;;;;;;1.97;1.50;;;;;;;19.25;95.07;98257.34;5161403;27;41237;-76
2023/07/29 03:46:28;;;;;;;1.90;1.70;;;;;;;19.25;95.07;98251.13;5161686;27;39757;-77
2023/07/29 03:48:56;;;;;;;2.90;1.80;;;;;;;19.23;95.19;98245.09;5179078;27;42728;-77
2023/07/29 03:51:24;;;;;;;3.03;1.90;;;;;;;19.21;95.87;98241.72;5179533;27;42946;-76
2023/07/29 03:53:52;;;;;;;1.83;1.73;;;;;;;19.09;96.51;98225.09;5161349;27;42368;-79
2023/07/29 03:56:19;;;;;;;2.07;1.80;;;;;;;19.15;97.27;98237.88;5161912;27;39828;-79
2023/07/29 03:58:49;;;;;;;1.83;1.73;;;;;;;19.13;97.37;98239.88;5178892;27;41583;-77
2023/07/29 04:01:17;;;;;;;3.83;1.90;;;;;;;19.11;97.41;98223.09;5161452;27;41503;-77
2023/07/29 04:03:46;;;;;;;2.97;1.90;;;;;;;19.13;97.55;98220.25;5179064;27;42917;-77
2023/07/29 04:06:13;;;;;;;1.80;1.70;;;;;;;19.15;97.40;98218.25;5179065;27;40944;-76
2023/07/29 04:08:42;;;;;;;2.00;1.57;;;;;;;19.18;97.53;98223.25;5179018;27;41778;-77
2023/07/29 04:11:10;;;;;;;3.83;1.63;;;;;;;19.20;97.59;98229.31;5159268;27;41615;-77
2023/07/29 04:13:38;;;;;;;1.90;1.70;;;;;;;19.19;98.60;98214.19;5178240;27;43099;-78
2023/07/29 04:16:07;;;;;;;1.70;1.60;;;;;;;19.18;99.10;98209.81;5178085;27;40619;-77
2023/07/29 04:18:35;;;;;;;1.90;1.70;;;;;;;19.18;98.49;98209.81;5177799;27;42618;-77
2023/07/29 04:21:03;;;;;;;1.37;1.27;;;;;;;19.19;98.37;98214.19;5177686;27;43548;-77
2023/07/29 04:23:31;;;;;;;1.30;1.20;;;;;;;19.20;97.80;98223.94;5196624;27;42448;-77
2023/07/29 04:25:58;;;;;;;1.80;1.57;;;;;;;19.22;97.89;98211.19;5159956;27;39815;-79
2023/07/29 04:28:26;;;;;;;1.40;1.30;;;;;;;19.26;97.74;98204.50;5177734;27;41727;-77
2023/07/29 04:30:55;;;;;;;1.27;1.17;;;;;;;19.27;97.69;98200.81;5177276;27;42542;-77
2023/07/29 04:33:24;;;;;;;1.63;1.23;;;;;;;19.29;97.04;98199.59;5159876;27;41571;-77
2023/07/29 04:35:52;;;;;;;2.03;1.23;;;;;;;19.20;96.90;98186.34;5177455;27;41092;-77
2023/07/29 04:38:19;;;;;;;1.37;1.20;;;;;;;19.32;96.85;98193.06;5159125;27;41107;-78
2023/07/29 04:40:47;;;;;;;1.10;1.00;;;;;;;19.32;96.80;98201.97;5160125;27;42755;-77
2023/07/29 04:43:15;;;;;;;1.37;1.07;;;;;;;19.33;97.26;98210.84;5160857;27;42666;-77
2023/07/29 04:45:44;;;;;;;1.37;1.27;;;;;;;19.34;96.86;98213.38;5177995;27;41759;-77
2023/07/29 04:48:12;;;;;;;4.37;1.50;;;;;;;19.38;96.86;98208.53;5160609;27;41740;-77
2023/07/29 04:50:41;;;;;;;1.20;1.10;;;;;;;19.45;96.19;98220.25;5177789;27;43521;-77
2023/07/29 04:53:08;;;;;;;1.20;0.97;;;;;;;19.51;95.92;98214.28;5178025;27;42248;-78
2023/07/29 04:55:36;;;;;;;1.20;0.90;;;;;;;19.58;95.95;98203.69;5177791;27;40781;-76
2023/07/29 04:58:04;;;;;;;1.20;1.10;;;;;;;19.62;95.78;98205.03;5160686;27;41825;-77
2023/07/29 05:00:33;;;;;;;1.93;1.00;;;;;;;19.65;95.72;98200.16;5178064;27;42708;-77
2023/07/29 05:03:01;;;;;;;1.37;1.10;;;;;;;19.72;95.43;98186.88;5178028;27;42403;-77
2023/07/29 05:05:29;;;;;;;2.07;1.23;;;;;;;19.73;95.52;98186.72;5178061;27;41859;-78
2023/07/29 05:07:59;;;;;;;1.30;1.00;;;;;;;19.71;95.01;98194.09;5160760;27;40863;-77
2023/07/29 05:10:26;;;;;;;1.53;1.00;;;;;;;19.84;95.01;98203.50;5160233;27;41443;-77
2023/07/29 05:12:54;;;;;;;1.10;1.00;;;;;;;19.87;94.77;98201.31;5160473;27;41272;-79
2023/07/29 05:15:22;;;;;;;1.43;1.20;;;;;;;19.90;94.62;98208.19;5158286;27;39932;-80
2023/07/29 05:17:49;;;;;;;0.87;0.87;;;;;;;19.93;94.40;98208.69;5159409;27;40739;-77
2023/07/29 05:20:17;;;;;;;1.00;0.90;;;;;;;19.98;94.44;98202.81;5176526;27;43542;-77
2023/07/29 05:22:45;;;;;;;1.10;0.93;;;;;;;20.02;94.32;98212.22;5176984;27;42345;-77
2023/07/29 05:25:15;;;;;;;1.10;0.93;;;;;;;20.05;94.46;98206.47;5159049;27;40744;-76
2023/07/29 05:27:42;;;;;;;1.10;1.00;;;;;;;20.08;94.56;98211.50;5159155;27;40624;-77
2023/07/29 05:30:10;;;;;;;1.60;1.10;;;;;;;20.10;94.38;98209.50;5176461;27;43029;-77
2023/07/29 05:32:38;;;;;;;1.20;1.10;;;;;;;20.11;94.53;98215.72;5159245;27;41988;-77
2023/07/29 05:35:08;;;;;;;2.93;1.43;;;;;;;20.12;94.48;98229.00;5176452;27;40788;-77
2023/07/29 05:37:38;;;;;;;1.00;0.90;;;;;;;20.14;94.34;98231.50;5176736;27;40769;-80
2023/07/29 05:40:08;;;;;;;1.23;1.13;;;;;;;20.15;94.35;98219.75;5176532;27;42968;-77
2023/07/29 05:42:37;;;;;;;1.40;1.30;;;;;;;20.15;94.59;98217.91;5177601;27;42087;-77
2023/07/29 05:45:06;;;;;;;1.63;0.90;;;;;;;20.17;94.27;98226.59;5159844;27;39538;-77
2023/07/29 05:47:34;;;;;;;1.63;1.20;;;;;;;20.19;94.32;98234.50;5160057;27;41123;-77
2023/07/29 05:50:04;;;;;;;1.63;1.33;;;;;;;20.20;94.46;98234.34;5176483;27;42724;-78
2023/07/29 05:52:32;;;;;;;1.23;1.10;;;;;;;20.10;94.27;98222.94;5192912;27;43486;-80
2023/07/29 05:55:00;;;;;;;1.10;1.00;;;;;;;20.21;93.93;98237.84;5176909;27;41102;-78
2023/07/29 05:57:27;;;;;;;1.43;1.33;;;;;;;20.22;94.53;98245.75;5159746;27;40612;-80
2023/07/29 05:59:57;;;;;;;1.20;1.10;;;;;;;20.25;94.23;98248.13;5160246;27;41670;-78
2023/07/29 06:02:24;;;;;;;1.10;1.00;;;;;;;20.28;93.97;98258.50;5160735;27;42215;-78
2023/07/29 06:04:53;;;;;;;1.10;1.00;;;;;;;20.26;93.61;98255.16;5178139;27;40847;-77
2023/07/29 06:07:21;;;;;;;1.10;1.00;;;;;;;20.33;93.32;98258.84;5177247;27;42799;-80
2023/07/29 06:09:49;;;;;;;1.67;0.80;;;;;;;20.35;93.31;98264.91;5158176;27;41734;-79
2023/07/29 06:12:16;;;;;;;1.60;1.20;;;;;;;20.38;93.51;98269.97;5158236;27;42230;-77
2023/07/29 06:14:44;;;;;;;0.97;0.97;;;;;;;20.37;93.38;98276.34;5158894;27;39893;-78
2023/07/29 06:17:13;;;;;;;1.40;1.10;;;;;;;20.34;93.56;98271.28;5175866;27;41923;-77
2023/07/29 06:19:41;;;;;;;1.03;1.00;;;;;;;20.34;93.86;98275.81;5176160;27;43843;-77
2023/07/29 06:22:08;;;;;;;1.07;1.00;;;;;;;20.38;93.69;98274.50;5194815;27;42312;-77
2023/07/29 06:24:36;;;;;;;2.10;1.30;;;;;;;20.40;93.63;98275.97;5158341;27;40889;-78
2023/07/29 06:27:04;;;;;;;1.07;0.97;;;;;;;20.42;93.66;98275.81;5194667;27;41669;-80
2023/07/29 06:29:32;;;;;;;1.07;0.97;;;;;;;20.32;93.56;98257.16;5158096;27;41629;-78
2023/07/29 06:32:00;;;;;;;1.20;1.10;;;;;;;20.29;93.81;98246.75;5194660;27;43617;-78
2023/07/29 06:34:29;;;;;;;1.30;1.20;;;;;;;20.40;93.89;98259.84;5194603;27;41092;-78
2023/07/29 06:36:57;;;;;;;0.97;0.83;;;;;;;20.18;93.60;98205.94;5175624;27;40420;-78
2023/07/29 06:39:25;;;;;;;1.10;1.00;;;;;;;20.53;93.43;98242.31;5175459;27;42835;-80
2023/07/29 06:41:52;;;;;;;0.80;0.80;;;;;;;20.57;93.15;98232.91;5195644;27;42281;-77
2023/07/29 06:44:19;;;;;;;2.30;1.07;;;;;;;20.34;93.32;98190.59;5177034;27;41691;-78
2023/07/29 06:46:47;;;;;;;1.27;1.00;;;;;;;20.56;93.37;98247.38;5159137;27;40559;-78
2023/07/29 06:49:15;;;;;;;1.20;1.10;;;;;;;20.51;93.76;98234.47;5195390;27;42704;-80
2023/07/29 06:51:44;;;;;;;1.00;0.90;;;;;;;20.46;94.18;98235.97;5159482;27;41303;-76
2023/07/29 06:54:12;;;;;;;1.23;1.03;;;;;;;20.40;94.64;98267.06;5158430;27;40042;-76
2023/07/29 06:56:39;;;;;;;1.23;1.00;;;;;;;20.35;95.28;98254.16;5176428;27;42476;-76
2023/07/29 06:59:07;;;;;;;1.10;0.90;;;;;;;20.33;95.70;98248.09;5176442;27;41559;-79
2023/07/29 07:01:35;;;;;;;2.27;1.13;;;;;;;20.36;95.45;98238.88;5196673;27;43311;-80
2023/07/29 07:04:03;;;;;;;1.20;1.00;;;;;;;20.34;95.96;98244.38;5198784;27;40679;-77
2023/07/29 07:06:31;;;;;;;1.37;0.87;;;;;;;20.36;96.10;98242.41;5180258;27;42039;-77
2023/07/29 07:09:00;;;;;;;1.10;0.93;;;;;;;20.40;96.02;98270.59;5161851;27;41815;-79
2023/07/29 07:11:28;;;;;;;1.00;1.00;;;;;;;20.39;96.64;98279.72;5178217;27;42163;-77
2023/07/29 07:13:55;;;;;;;1.70;1.10;;;;;;;20.41;96.39;98277.66;5178786;27;39944;-79
2023/07/29 07:16:23;;;;;;;1.00;0.90;;;;;;;20.38;96.36;98261.91;5179154;27;42742;-77
2023/07/29 07:18:50;;;;;;;1.03;0.93;;;;;;;20.33;96.31;98247.25;5197576;27;42610;-78
2023/07/29 07:21:18;;;;;;;1.13;0.90;;;;;;;20.30;96.35;98267.25;5197583;27;42423;-77
2023/07/29 07:23:46;;;;;;;1.03;0.90;;;;;;;20.28;96.83;98257.66;5178823;27;40030;-77
2023/07/29 07:26:15;;;;;;;1.00;0.90;;;;;;;20.28;96.62;98239.69;5161416;27;40530;-80
2023/07/29 07:28:43;;;;;;;1.00;0.87;;;;;;;20.28;96.47;98239.69;5178721;27;43709;-78
2023/07/29 07:31:11;;;;;;;1.20;0.90;;;;;;;20.29;97.67;98246.75;5160875;27;41372;-78
2023/07/29 07:33:38;;;;;;;1.23;1.10;;;;;;;20.34;97.34;98236.31;5178901;27;39966;-77
2023/07/29 07:36:06;;;;;;;1.30;1.00;;;;;;;20.52;96.96;98229.91;5161212;27;40781;-77
2023/07/29 07:38:34;;;;;;;1.23;1.10;;;;;;;20.70;97.17;98233.19;5178712;27;43785;-77
2023/07/29 07:41:02;;;;;;;1.23;0.90;;;;;;;20.89;96.69;98229.25;5178967;27;43199;-78
2023/07/29 07:43:31;;;;;;;1.60;1.00;;;;;;;21.21;96.02;98215.59;5179739;27;40233;-79
2023/07/29 07:45:59;;;;;;;2.07;0.90;;;;;;;21.49;95.23;98213.22;5179347;27;42494;-79
2023/07/29 07:48:27;;;;;;;1.93;0.77;;;;;;;21.52;94.90;98223.63;5179525;27;41733;-77
2023/07/29 07:50:55;;;;;;;1.27;0.90;;;;;;;21.48;94.86;98228.56;5179367;27;42701;-78
2023/07/29 07:53:22;;;;;;;1.30;0.93;;;;;;;21.36;94.73;98218.38;5179552;27;41882;-77
2023/07/29 07:55:50;;;;;;;1.00;0.63;;;;;;;21.39;94.95;98218.00;5179144;27;41934;-77
2023/07/29 07:58:18;;;;;;;0.83;0.83;;;;;;;21.39;95.15;98216.13;5179623;27;43541;-78
2023/07/29 08:00:47;;;;;;;0.70;0.70;;;;;;;21.45;95.13;98220.81;5197848;27;42233;-76
2023/07/29 08:03:15;;;;;;;0.80;0.80;;;;;;;21.59;94.99;98221.06;5161689;27;40166;-79
2023/07/29 08:05:42;;;;;;;0.93;0.70;;;;;;;21.91;95.06;98236.94;5161824;27;41705;-77
2023/07/29 08:08:10;;;;;;;1.17;0.73;;;;;;;22.21;94.07;98222.50;5179240;27;43758;-79
2023/07/29 08:10:37;;;;;;;0.87;0.63;;;;;;;22.67;93.39;98216.06;5159284;27;42395;-78
2023/07/29 08:13:05;;;;;;;1.03;0.70;;;;;;;23.26;91.30;98220.34;5176991;27;41070;-79
2023/07/29 08:15:33;;;;;;;0.70;0.60;;;;;;;24.64;86.95;98234.19;5196498;27;42357;-78
2023/07/29 08:18:02;;;;;;;1.10;0.90;;;;;;;24.76;84.43;98244.44;5196914;27;42886;-80
2023/07/29 08:20:30;;;;;;;0.77;0.70;;;;;;;24.60;83.32;98241.03;5177784;27;41817;-78
2023/07/29 08:22:57;;;;;;;0.67;0.67;;;;;;;24.47;82.83;98240.97;5160543;27;40063;-79
2023/07/29 08:25:25;;;;;;;0.57;0.50;;;;;;;24.45;83.14;98237.63;5160166;27;41030;-79
2023/07/29 08:27:53;;;;;;;0.80;0.80;;;;;;;24.41;83.37;98239.06;5196381;27;43001;-78
2023/07/29 08:30:20;;;;;;;0.90;0.70;;;;;;;24.44;82.39;98235.13;5177614;27;42397;-78
2023/07/29 08:32:48;;;;;;;0.87;0.70;;;;;;;24.48;81.30;98258.88;5178003;27;40962;-78
2023/07/29 08:35:17;;;;;;;0.50;0.50;;;;;;;24.19;81.47;98256.38;5196439;27;41845;-79
2023/07/29 08:37:45;;;;;;;1.57;0.67;;;;;;;23.89;82.64;98270.06;5159992;27;41718;-78
2023/07/29 08:40:14;;;;;;;1.70;0.70;;;;;;;23.58;83.43;98273.09;5160016;27;41213;-78
2023/07/29 08:42:43;;;;;;;0.50;0.50;;;;;;;23.25;83.42;98271.84;5197505;27;40973;-79
2023/07/29 08:45:12;;;;;;;1.17;0.60;;;;;;;22.93;84.74;98278.56;5160723;27;40439;-78
2023/07/29 08:47:40;;;;;;;0.60;0.60;;;;;;;22.76;85.32;98287.84;5197216;27;42886;-77
2023/07/29 08:50:09;;;;;;;1.73;0.90;;;;;;;22.40;87.17;98275.06;5178119;27;42503;-80
2023/07/29 08:52:39;;;;;;;0.97;0.77;;;;;;;22.06;88.78;98258.56;5161612;27;39920;-77
2023/07/29 08:55:08;;;;;;;1.13;0.47;;;;;;;21.97;90.11;98243.47;5160091;27;40642;-77
2023/07/29 08:57:36;;;;;;;0.67;0.67;;;;;;;22.08;90.75;98246.59;5160350;27;41798;-80
2023/07/29 09:00:04;;;;;;;0.77;0.47;;;;;;;22.29;90.93;98237.75;5196969;27;42221;-78
2023/07/29 09:02:33;;;;;;;0.40;0.40;;;;;;;22.88;90.38;98256.66;5178295;27;40629;-78
2023/07/29 09:05:02;;;;;;;0.80;0.67;;;;;;;23.45;90.06;98255.88;5178003;27;42788;-77
2023/07/29 09:07:31;;;;;;;1.30;0.67;;;;;;;24.02;89.32;98268.50;5178062;27;43761;-80
2023/07/29 09:10:00;;;;;;;1.23;0.77;;;;;;;24.42;86.79;98259.69;5158517;27;41596;-79
2023/07/29 09:12:28;;;;;;;0.87;0.77;;;;;;;24.59;85.93;98261.06;5158925;27;39708;-77
2023/07/29 09:14:55;;;;;;;0.83;0.80;;;;;;;24.72;84.19;98257.59;5176772;27;40482;-77
2023/07/29 09:17:23;;;;;;;0.60;0.60;;;;;;;24.77;82.89;98263.22;5176785;27;42731;-77
2023/07/29 09:19:51;;;;;;;0.67;0.67;;;;;;;24.69;82.58;98261.50;5176378;27;41314;-78
2023/07/29 09:22:20;;;;;;;0.70;0.50;;;;;;;24.63;83.58;98256.88;5176871;27;39915;-78
2023/07/29 09:24:48;;;;;;;0.60;0.60;;;;;;;24.58;84.29;98253.97;5175159;27;41484;-78
2023/07/29 09:27:26;;;;;;;1.10;1.07;;;;;;;24.59;85.18;98252.94;5195436;27;43738;-78
2023/07/29 09:29:55;;;;;;;0.50;0.50;;;;;;;24.60;84.87;98256.47;5159222;27;42337;-77
2023/07/29 09:32:24;;;;;;;1.33;0.80;;;;;;;24.50;81.23;98255.97;5177115;27;40686;-78
2023/07/29 09:34:52;;;;;;;0.70;0.60;;;;;;;24.35;81.36;98245.28;5176645;27;42672;-78
2023/07/29 09:37:22;;;;;;;0.53;0.53;;;;;;;24.36;80.98;98246.91;5195596;27;42796;-81
2023/07/29 09:39:51;;;;;;;0.80;0.60;;;;;;;24.06;79.10;98204.88;5176698;27;41483;-78
2023/07/29 09:42:20;;;;;;;0.40;0.40;;;;;;;24.25;76.78;98247.47;5159997;27;39886;-79
2023/07/29 09:44:51;;;;;;;1.17;0.40;;;;;;;24.40;75.56;98255.50;5159481;27;41120;-79
2023/07/29 09:47:23;;;;;;;0.50;0.50;;;;;;;24.78;74.65;98258.63;5160222;27;42029;-78
2023/07/29 09:49:51;;;;;;;0.53;0.50;;;;;;;25.95;72.76;98257.38;5175802;27;43232;-78
2023/07/29 09:52:19;;;;;;;0.73;0.70;;;;;;;26.56;70.68;98253.56;5196171;27;41266;-79
2023/07/29 09:54:48;;;;;;;0.60;0.60;;;;;;;27.23;66.79;98250.41;5159503;27;40666;-78
2023/07/29 09:57:17;;;;;;;0.90;0.70;;;;;;;28.70;63.99;98269.00;5195566;27;43764;-78
2023/07/29 09:59:56;;;;;;;0.57;0.43;;;;;;;29.61;59.15;98290.81;5159463;27;42684;-79
2023/07/29 10:02:27;;;;;;;1.80;0.60;;;;;;;29.71;58.78;98297.59;5159515;27;40138;-79
2023/07/29 10:04:56;;;;;;;0.70;0.60;;;;;;;29.71;60.07;98292.13;5194204;27;41707;-79
2023/07/29 10:07:25;;;;;;;0.93;0.70;;;;;;;29.86;60.23;98285.19;5195695;27;42538;-78
2023/07/29 10:09:53;;;;;;;0.50;0.50;;;;;;;30.49;56.89;98300.16;5158102;27;41204;-78
2023/07/29 10:12:22;;;;;;;0.93;0.67;;;;;;;30.91;56.18;98301.72;5174982;27;40113;-78
2023/07/29 10:14:51;;;;;;;0.40;0.30;;;;;;;31.74;54.60;98304.03;5157990;27;40764;-79
2023/07/29 10:17:22;;;;;;;0.50;0.50;;;;;;;32.26;52.42;98306.66;5175359;27;41822;-79
2023/07/29 10:19:51;;;;;;;0.50;0.50;;;;;;;33.82;49.33;98325.59;5158103;27;41914;-79
2023/07/29 10:22:22;;;;;;;0.60;0.60;;;;;;;34.94;45.29;98344.75;5157798;27;39835;-79
2023/07/29 10:24:52;;;;;;;0.70;0.70;;;;;;;34.11;46.96;98323.41;5158219;27;41935;-79
2023/07/29 10:27:21;;;;;;;0.50;0.50;;;;;;;33.14;47.48;98315.91;5194167;27;42843;-79
2023/07/29 10:29:51;;;;;;;0.50;0.50;;;;;;;32.35;49.53;98294.19;5175254;27;42947;-78
2023/07/29 10:32:22;;;;;;;0.67;0.63;;;;;;;31.92;50.31;98277.50;5194095;27;41251;-78
2023/07/29 10:34:50;;;;;;;1.20;0.67;;;;;;;32.10;51.36;98286.34;5194207;27;41503;-78
2023/07/29 10:37:18;;;;;;;0.70;0.70;;;;;;;32.35;49.55;98291.44;5196609;27;43075;-79
2023/07/29 10:39:53;;;;;;;1.10;0.90;;;;;;;32.32;51.58;98250.81;5197870;27;42338;-78
2023/07/29 10:42:21;;;;;;;0.83;0.60;;;;;;;32.84;50.63;98280.69;5180026;27;39841;-79
2023/07/29 10:44:51;;;;;;;0.80;0.80;;;;;;;33.64;46.95;98281.94;5162733;27;40790;-79
2023/07/29 10:47:23;;;;;;;0.90;0.90;;;;;;;34.94;44.62;98300.72;5198663;27;44563;-79
2023/07/29 10:49:54;;;;;;;1.03;0.93;;;;;;;34.83;44.66;98287.19;5162558;27;41250;-79
2023/07/29 10:52:40;;;;;;;1.40;0.90;;;;;;;34.45;46.34;98269.84;5176853;27;41815;-79
2023/07/29 10:55:26;;;;;;;1.00;1.00;;;;;;;34.09;47.33;98265.13;5196916;27;41942;-78
2023/07/29 10:58:05;;;;;;;1.40;1.00;;;;;;;34.14;45.81;98276.97;5162687;27;42727;-79
2023/07/29 11:00:33;;;;;;;1.03;0.97;;;;;;;33.94;46.14;98282.31;5198020;27;42374;-78
2023/07/29 11:03:04;;;;;;;1.23;1.20;;;;;;;33.83;45.36;98277.81;5198999;27;41171;-79
2023/07/29 11:05:49;;;;;;;2.30;1.03;;;;;;;33.66;45.96;98288.84;5162033;27;41107;-78
2023/07/29 11:08:24;;;;;;;1.40;1.30;;;;;;;33.11;46.97;98248.69;5179980;27;41872;-79
2023/07/29 11:11:02;;;;;;;1.40;1.30;;;;;;;32.87;46.25;98279.34;5159861;27;41281;-80
2023/07/29 11:13:30;;;;;;;1.10;1.10;;;;;;;32.37;47.16;98261.88;5175454;27;40926;-78
2023/07/29 11:15:59;;;;;;;1.20;1.10;;;;;;;32.47;48.96;98242.00;5178453;27;41596;-78
2023/07/29 11:18:31;;;;;;;1.43;1.33;;;;;;;32.62;48.94;98244.13;5178617;27;42788;-78
2023/07/29 11:20:59;;;;;;;2.00;1.90;;;;;;;32.53;46.40;98270.31;5178732;27;42180;-78
2023/07/29 11:23:32;;;;;;;2.10;1.33;;;;;;;32.50;45.48;98284.53;5178769;27;39962;-79
2023/07/29 11:26:00;;;;;;;1.27;1.17;;;;;;;32.73;46.85;98262.44;5178030;27;40886;-78
2023/07/29 11:28:28;;;;;;;1.30;1.20;;;;;;;32.12;46.85;98275.13;5178521;27;42033;-79
2023/07/29 11:30:56;;;;;;;1.23;1.10;;;;;;;31.72;47.07;98277.97;5197651;27;43307;-78
2023/07/29 11:33:25;;;;;;;1.00;1.00;;;;;;;31.32;48.57;98265.13;5178287;27;40411;-78
2023/07/29 11:35:55;;;;;;;1.30;1.20;;;;;;;30.88;48.97;98254.91;5197047;27;41805;-78
2023/07/29 11:38:24;;;;;;;3.10;1.40;;;;;;;30.59;49.77;98259.44;5178178;27;42731;-77
2023/07/29 11:40:56;;;;;;;1.43;1.33;;;;;;;30.39;51.06;98250.75;5160377;27;41190;-79
2023/07/29 11:43:23;;;;;;;0.97;0.97;;;;;;;30.48;49.29;98246.56;5194993;27;41117;-78